WITM/LSW METAR and TAF weather

Enter ICAO airport designator
Station Type Date Time Source
WITM METAR UTC NOAA

Error!


Station Type Date Time Source
WITM Decoded METAR UTC NOAA

Error!

Station Type Date Time Source
WITM TAF 2015/10/02 12:00 UTC NOAA

TAF WITM 021100Z 0212/0312 14005KT 9999 SCT018
BECMG 0300/0302 FEW019 PROB30
TEMPO 0308/0312 23007KT 5000 TSRA FEW015CB SCT016


Example: see airport list